createdAt,value
2019-03-24T00:00:02.802Z,3.9
2019-03-24T00:15:03.102Z,3.6
2019-03-24T00:30:03.453Z,3.7
2019-03-24T00:45:02.736Z,3.2
2019-03-24T01:00:03.062Z,3.1
2019-03-24T01:15:03.342Z,3.2
2019-03-24T01:30:02.685Z,3
2019-03-24T01:45:03.050Z,2.8
2019-03-24T02:00:03.388Z,2.6
2019-03-24T02:15:02.626Z,2.1
2019-03-24T02:30:03.011Z,2.4
2019-03-24T02:45:02.500Z,1.8
2019-03-24T03:00:02.751Z,1.8
2019-03-24T03:15:03.077Z,2
2019-03-24T03:30:03.387Z,1.7
2019-03-24T03:45:02.724Z,1.1
2019-03-24T04:00:03.058Z,1.1
2019-03-24T04:15:02.497Z,1.1
2019-03-24T04:30:03.061Z,0.9
2019-03-24T04:45:03.381Z,1.2
2019-03-24T05:00:02.632Z,1
2019-03-24T05:15:02.972Z,1.1
2019-03-24T05:30:03.335Z,1.1
2019-03-24T05:45:02.739Z,1.3
2019-03-24T06:00:03.076Z,1.2
2019-03-24T06:15:02.543Z,1.8
2019-03-24T06:30:03.309Z,2.1
2019-03-24T06:45:02.827Z,2.6
2019-03-24T07:00:02.890Z,3.5
2019-03-24T07:15:03.214Z,4.2
2019-03-24T07:30:02.584Z,5.2
2019-03-24T07:45:02.863Z,6.2
2019-03-24T08:00:03.214Z,7.2
2019-03-24T08:15:02.735Z,8.8
2019-03-24T08:30:03.062Z,10.1
2019-03-24T08:45:03.385Z,10.9
2019-03-24T09:00:03.848Z,11
2019-03-24T09:15:02.977Z,12.3
2019-03-24T09:30:02.700Z,12.8
2019-03-24T09:45:03.020Z,14.4
2019-03-24T10:00:03.706Z,14.7
2019-03-24T10:15:02.629Z,14.9
2019-03-24T10:30:03.350Z,15
2019-03-24T10:45:02.664Z,15.4
2019-03-24T11:00:02.991Z,16.8
2019-03-24T11:15:03.314Z,15.9
2019-03-24T11:30:02.673Z,16.6
2019-03-24T11:45:03.173Z,17
2019-03-24T12:00:02.819Z,17.6
2019-03-24T12:15:05.313Z,17.6
2019-03-24T12:30:02.663Z,17.7
2019-03-24T12:45:02.949Z,17.2
2019-03-24T13:00:02.506Z,18
2019-03-24T13:15:02.898Z,18.1
2019-03-24T13:30:03.298Z,17.6
2019-03-24T13:45:02.570Z,18.4
2019-03-24T14:00:02.915Z,17.8
2019-03-24T14:15:03.221Z,17.8
2019-03-24T14:30:02.584Z,17.6
2019-03-24T14:45:02.913Z,18
2019-03-24T15:00:03.214Z,17.9
2019-03-24T15:15:02.521Z,17.6
2019-03-24T15:30:03.025Z,17.2
2019-03-24T15:45:03.460Z,17
2019-03-24T16:00:02.671Z,16.6
2019-03-24T16:15:02.958Z,16.4
2019-03-24T16:30:03.319Z,16.1
2019-03-24T16:45:02.586Z,15.6
2019-03-24T17:00:02.895Z,15.2
2019-03-24T17:15:03.225Z,14.7
2019-03-24T17:30:02.584Z,13.9
2019-03-24T17:45:03.134Z,13.1
2019-03-24T18:00:02.501Z,12.4
2019-03-24T18:15:02.926Z,11.6
2019-03-24T18:30:03.372Z,11.1
2019-03-24T18:45:02.896Z,10.9
2019-03-24T19:00:03.176Z,10.8
2019-03-24T19:15:03.338Z,10.6
2019-03-24T19:30:02.736Z,11.2
2019-03-24T19:45:03.046Z,11.8
2019-03-24T20:00:03.335Z,11.9
2019-03-24T20:15:02.644Z,11.8
2019-03-24T20:30:02.946Z,11.8
2019-03-24T20:45:02.581Z,11.7
2019-03-24T21:00:02.839Z,11.4
2019-03-24T21:15:03.302Z,11.3
2019-03-24T21:30:02.689Z,11
2019-03-24T21:45:02.970Z,10.7
2019-03-24T22:00:03.094Z,10.4
2019-03-24T22:15:02.409Z,10.1
2019-03-24T22:30:02.813Z,9.9
2019-03-24T22:45:03.130Z,9.7
2019-03-24T23:00:03.470Z,9.5
2019-03-24T23:15:02.734Z,9.3
2019-03-24T23:30:03.068Z,9.1
2019-03-24T23:45:03.268Z,9
